sensor_id;sensor_type;location;lat;lon;timestamp;pressure;altitude;pressure_sealevel;temperature;humidity
51468;BME280;37545;45.302;-122.946;2023-02-17T00:00:25;101620.50;;;8.87;56.97
51468;BME280;37545;45.302;-122.946;2023-02-17T00:02:55;101622.19;;;8.86;59.03
51468;BME280;37545;45.302;-122.946;2023-02-17T00:05:25;101624.53;;;8.81;57.66
51468;BME280;37545;45.302;-122.946;2023-02-17T00:07:55;101617.28;;;8.74;56.47
51468;BME280;37545;45.302;-122.946;2023-02-17T00:10:24;101622.41;;;8.73;57.71
51468;BME280;37545;45.302;-122.946;2023-02-17T00:12:53;101612.00;;;8.71;57.53
51468;BME280;37545;45.302;-122.946;2023-02-17T00:15:21;101615.44;;;8.72;57.99
51468;BME280;37545;45.302;-122.946;2023-02-17T00:17:50;101620.28;;;8.66;57.71
51468;BME280;37545;45.302;-122.946;2023-02-17T00:20:19;101616.81;;;8.65;57.89
51468;BME280;37545;45.302;-122.946;2023-02-17T00:22:47;101610.47;;;8.58;57.94
51468;BME280;37545;45.302;-122.946;2023-02-17T00:25:17;101610.66;;;8.62;56.68
51468;BME280;37545;45.302;-122.946;2023-02-17T00:27:46;101608.84;;;8.60;59.85
51468;BME280;37545;45.302;-122.946;2023-02-17T00:30:15;101618.38;;;8.62;57.67
51468;BME280;37545;45.302;-122.946;2023-02-17T00:32:44;101603.16;;;8.50;57.99
51468;BME280;37545;45.302;-122.946;2023-02-17T00:35:12;101602.09;;;8.46;58.10
51468;BME280;37545;45.302;-122.946;2023-02-17T00:37:41;101608.38;;;8.51;60.19
51468;BME280;37545;45.302;-122.946;2023-02-17T00:40:11;101609.13;;;8.49;57.37
51468;BME280;37545;45.302;-122.946;2023-02-17T00:42:42;101620.00;;;8.43;58.14
51468;BME280;37545;45.302;-122.946;2023-02-17T00:45:10;101613.88;;;8.41;58.59
51468;BME280;37545;45.302;-122.946;2023-02-17T00:47:39;101619.19;;;8.44;60.21
51468;BME280;37545;45.302;-122.946;2023-02-17T00:50:08;101620.16;;;8.46;61.35
51468;BME280;37545;45.302;-122.946;2023-02-17T00:52:37;101614.13;;;8.46;61.30
51468;BME280;37545;45.302;-122.946;2023-02-17T00:55:06;101617.81;;;8.51;60.50
51468;BME280;37545;45.302;-122.946;2023-02-17T00:57:35;101609.34;;;8.53;59.95
51468;BME280;37545;45.302;-122.946;2023-02-17T01:00:06;101606.91;;;8.56;60.28
51468;BME280;37545;45.302;-122.946;2023-02-17T01:02:35;101606.91;;;8.56;59.10
51468;BME280;37545;45.302;-122.946;2023-02-17T01:05:04;101611.28;;;8.57;59.50
51468;BME280;37545;45.302;-122.946;2023-02-17T01:07:33;101617.09;;;8.53;59.11
51468;BME280;37545;45.302;-122.946;2023-02-17T01:10:03;101615.16;;;8.49;60.14
51468;BME280;37545;45.302;-122.946;2023-02-17T01:12:31;101614.28;;;8.49;61.24
51468;BME280;37545;45.302;-122.946;2023-02-17T01:15:00;101610.00;;;8.49;61.82
51468;BME280;37545;45.302;-122.946;2023-02-17T01:17:30;101606.16;;;8.41;61.42
51468;BME280;37545;45.302;-122.946;2023-02-17T01:19:59;101615.38;;;8.37;63.77
51468;BME280;37545;45.302;-122.946;2023-02-17T01:22:28;101609.97;;;8.33;64.17
51468;BME280;37545;45.302;-122.946;2023-02-17T01:24:56;101614.75;;;8.25;63.05
51468;BME280;37545;45.302;-122.946;2023-02-17T01:27:25;101614.75;;;8.25;62.18
51468;BME280;37545;45.302;-122.946;2023-02-17T01:29:53;101616.34;;;8.23;65.57
51468;BME280;37545;45.302;-122.946;2023-02-17T01:32:22;101620.63;;;8.23;66.68
51468;BME280;37545;45.302;-122.946;2023-02-17T01:34:52;101619.72;;;8.22;63.07
51468;BME280;37545;45.302;-122.946;2023-02-17T01:37:21;101619.81;;;8.24;62.86
51468;BME280;37545;45.302;-122.946;2023-02-17T01:39:50;101617.09;;;8.21;62.64
51468;BME280;37545;45.302;-122.946;2023-02-17T01:42:19;101615.38;;;8.21;61.66
51468;BME280;37545;45.302;-122.946;2023-02-17T01:45:28;101603.38;;;8.22;60.83
51468;BME280;37545;45.302;-122.946;2023-02-17T01:48:02;101598.94;;;8.19;62.06
51468;BME280;37545;45.302;-122.946;2023-02-17T01:50:37;101606.59;;;8.17;62.68
51468;BME280;37545;45.302;-122.946;2023-02-17T01:53:07;101609.00;;;8.14;60.87
51468;BME280;37545;45.302;-122.946;2023-02-17T01:55:37;101614.91;;;8.12;61.50
51468;BME280;37545;45.302;-122.946;2023-02-17T01:58:08;101607.88;;;8.09;61.45
51468;BME280;37545;45.302;-122.946;2023-02-17T02:00:39;101613.78;;;8.07;60.50
51468;BME280;37545;45.302;-122.946;2023-02-17T02:03:10;101619.66;;;8.04;60.87
51468;BME280;37545;45.302;-122.946;2023-02-17T02:05:42;101616.66;;;7.96;61.28
51468;BME280;37545;45.302;-122.946;2023-02-17T02:08:11;101633.06;;;7.98;61.40
51468;BME280;37545;45.302;-122.946;2023-02-17T02:10:40;101637.19;;;7.95;61.58
51468;BME280;37545;45.302;-122.946;2023-02-17T02:13:09;101634.44;;;7.92;62.31
51468;BME280;37545;45.302;-122.946;2023-02-17T02:15:43;101631.19;;;7.80;68.77
51468;BME280;37545;45.302;-122.946;2023-02-17T02:18:35;101653.50;;;7.79;68.90
51468;BME280;37545;45.302;-122.946;2023-02-17T02:24:43;101646.50;;;7.76;70.60
51468;BME280;37545;45.302;-122.946;2023-02-17T02:27:42;101657.59;;;7.75;71.41
51468;BME280;37545;45.302;-122.946;2023-02-17T02:30:37;101649.78;;;7.74;67.35
51468;BME280;37545;45.302;-122.946;2023-02-17T02:33:19;101650.50;;;7.71;69.18
51468;BME280;37545;45.302;-122.946;2023-02-17T02:35:57;101656.00;;;7.63;68.71
51468;BME280;37545;45.302;-122.946;2023-02-17T02:38:29;101660.13;;;7.59;68.42
51468;BME280;37545;45.302;-122.946;2023-02-17T02:41:02;101660.03;;;7.58;68.65
51468;BME280;37545;45.302;-122.946;2023-02-17T02:43:32;101652.66;;;7.49;69.31
51468;BME280;37545;45.302;-122.946;2023-02-17T02:46:00;101666.34;;;7.48;68.17
51468;BME280;37545;45.302;-122.946;2023-02-17T02:48:31;101671.16;;;7.42;68.85
51468;BME280;37545;45.302;-122.946;2023-02-17T02:51:25;101674.38;;;7.38;68.18
51468;BME280;37545;45.302;-122.946;2023-02-17T02:54:13;101686.78;;;7.30;68.28
51468;BME280;37545;45.302;-122.946;2023-02-17T02:56:51;101688.22;;;7.25;69.53
51468;BME280;37545;45.302;-122.946;2023-02-17T02:59:32;101695.50;;;7.17;72.65
51468;BME280;37545;45.302;-122.946;2023-02-17T03:02:21;101691.69;;;7.10;73.29
51468;BME280;37545;45.302;-122.946;2023-02-17T03:04:58;101700.13;;;7.08;73.79
51468;BME280;37545;45.302;-122.946;2023-02-17T03:07:32;101705.78;;;7.02;73.18
51468;BME280;37545;45.302;-122.946;2023-02-17T03:10:02;101719.34;;;7.00;73.31
51468;BME280;37545;45.302;-122.946;2023-02-17T03:12:31;101706.22;;;6.95;74.35
51468;BME280;37545;45.302;-122.946;2023-02-17T03:15:02;101704.97;;;6.88;74.01
51468;BME280;37545;45.302;-122.946;2023-02-17T03:17:32;101705.38;;;6.81;73.35
51468;BME280;37545;45.302;-122.946;2023-02-17T03:20:04;101696.31;;;6.73;74.08
51468;BME280;37545;45.302;-122.946;2023-02-17T03:22:36;101693.47;;;6.68;75.45
51468;BME280;37545;45.302;-122.946;2023-02-17T03:25:06;101701.59;;;6.61;75.55
51468;BME280;37545;45.302;-122.946;2023-02-17T03:27:35;101691.66;;;6.53;75.45
51468;BME280;37545;45.302;-122.946;2023-02-17T03:30:04;101677.84;;;6.50;75.13
51468;BME280;37545;45.302;-122.946;2023-02-17T03:32:33;101689.72;;;6.48;75.33
51468;BME280;37545;45.302;-122.946;2023-02-17T03:35:04;101687.75;;;6.44;74.81
51468;BME280;37545;45.302;-122.946;2023-02-17T03:37:33;101690.09;;;6.41;74.29
51468;BME280;37545;45.302;-122.946;2023-02-17T03:40:02;101688.16;;;6.37;74.61
51468;BME280;37545;45.302;-122.946;2023-02-17T03:42:31;101695.66;;;6.34;74.57
51468;BME280;37545;45.302;-122.946;2023-02-17T03:45:00;101698.06;;;6.31;75.42
51468;BME280;37545;45.302;-122.946;2023-02-17T03:47:28;101704.88;;;6.31;75.22
51468;BME280;37545;45.302;-122.946;2023-02-17T03:49:57;101687.31;;;6.23;75.52
51468;BME280;37545;45.302;-122.946;2023-02-17T03:52:27;101707.19;;;6.26;76.21
51468;BME280;37545;45.302;-122.946;2023-02-17T03:54:56;101704.41;;;6.23;75.86
51468;BME280;37545;45.302;-122.946;2023-02-17T03:57:25;101701.75;;;6.21;75.68
51468;BME280;37545;45.302;-122.946;2023-02-17T03:59:53;101698.59;;;6.12;76.40
51468;BME280;37545;45.302;-122.946;2023-02-17T04:02:22;101693.19;;;5.94;79.07
51468;BME280;37545;45.302;-122.946;2023-02-17T04:04:51;101701.56;;;5.78;80.33
51468;BME280;37545;45.302;-122.946;2023-02-17T04:07:19;101691.41;;;5.66;82.08
51468;BME280;37545;45.302;-122.946;2023-02-17T04:09:50;101699.81;;;5.64;82.93
51468;BME280;37545;45.302;-122.946;2023-02-17T04:12:18;101696.13;;;5.60;83.43
51468;BME280;37545;45.302;-122.946;2023-02-17T04:14:47;101704.34;;;5.68;82.57
51468;BME280;37545;45.302;-122.946;2023-02-17T04:17:15;101708.00;;;5.72;82.13
51468;BME280;37545;45.302;-122.946;2023-02-17T04:19:44;101716.28;;;5.67;81.22
51468;BME280;37545;45.302;-122.946;2023-02-17T04:22:13;101709.97;;;5.62;81.16
51468;BME280;37545;45.302;-122.946;2023-02-17T04:24:41;101710.16;;;5.65;82.26
51468;BME280;37545;45.302;-122.946;2023-02-17T04:27:12;101690.59;;;5.67;83.51
51468;BME280;37545;45.302;-122.946;2023-02-17T04:29:40;101688.72;;;5.65;83.04
51468;BME280;37545;45.302;-122.946;2023-02-17T04:32:12;101696.66;;;5.68;83.78
51468;BME280;37545;45.302;-122.946;2023-02-17T04:34:41;101700.09;;;5.69;83.04
51468;BME280;37545;45.302;-122.946;2023-02-17T04:37:09;101708.38;;;5.64;82.81
51468;BME280;37545;45.302;-122.946;2023-02-17T04:39:38;101714.22;;;5.62;82.90
51468;BME280;37545;45.302;-122.946;2023-02-17T04:42:06;101732.09;;;5.60;82.16
51468;BME280;37545;45.302;-122.946;2023-02-17T04:44:36;101736.44;;;5.61;82.55
51468;BME280;37545;45.302;-122.946;2023-02-17T04:47:05;101740.59;;;5.59;81.42
51468;BME280;37545;45.302;-122.946;2023-02-17T04:49:34;101745.50;;;5.56;81.80
51468;BME280;37545;45.302;-122.946;2023-02-17T04:52:02;101740.00;;;5.50;81.79
51468;BME280;37545;45.302;-122.946;2023-02-17T04:54:32;101742.94;;;5.56;82.44
51468;BME280;37545;45.302;-122.946;2023-02-17T04:57:06;101729.91;;;5.53;82.95
51468;BME280;37545;45.302;-122.946;2023-02-17T04:59:51;101744.22;;;5.63;82.41
51468;BME280;37545;45.302;-122.946;2023-02-17T05:02:21;101750.25;;;5.63;82.83
51468;BME280;37545;45.302;-122.946;2023-02-17T05:05:04;101745.31;;;5.53;81.86
51468;BME280;37545;45.302;-122.946;2023-02-17T05:07:34;101752.72;;;5.49;83.51
51468;BME280;37545;45.302;-122.946;2023-02-17T05:10:03;101758.53;;;5.46;83.60
51468;BME280;37545;45.302;-122.946;2023-02-17T05:12:31;101753.50;;;5.48;84.00
51468;BME280;37545;45.302;-122.946;2023-02-17T05:15:02;101762.97;;;5.49;84.66
51468;BME280;37545;45.302;-122.946;2023-02-17T05:17:31;101758.03;;;5.52;85.44
51468;BME280;37545;45.302;-122.946;2023-02-17T05:20:00;101752.22;;;5.54;84.74
51468;BME280;37545;45.302;-122.946;2023-02-17T05:22:29;101756.00;;;5.59;83.74
51468;BME280;37545;45.302;-122.946;2023-02-17T05:24:57;101758.75;;;5.62;83.33
51468;BME280;37545;45.302;-122.946;2023-02-17T05:27:26;101754.59;;;5.64;83.27
51468;BME280;37545;45.302;-122.946;2023-02-17T05:29:55;101746.09;;;5.65;82.02
51468;BME280;37545;45.302;-122.946;2023-02-17T05:32:25;101743.53;;;5.65;81.47
51468;BME280;37545;45.302;-122.946;2023-02-17T05:34:54;101751.16;;;5.64;81.97
51468;BME280;37545;45.302;-122.946;2023-02-17T05:37:23;101745.22;;;5.65;81.66
51468;BME280;37545;45.302;-122.946;2023-02-17T05:39:52;101738.41;;;5.65;81.01
51468;BME280;37545;45.302;-122.946;2023-02-17T05:42:20;101741.19;;;5.69;81.20
51468;BME280;37545;45.302;-122.946;2023-02-17T05:44:49;101739.63;;;5.71;80.91
51468;BME280;37545;45.302;-122.946;2023-02-17T05:47:20;101739.63;;;5.71;81.33
51468;BME280;37545;45.302;-122.946;2023-02-17T05:49:50;101730.13;;;5.70;81.69
51468;BME280;37545;45.302;-122.946;2023-02-17T05:52:19;101729.34;;;5.71;81.41
51468;BME280;37545;45.302;-122.946;2023-02-17T05:54:48;101739.81;;;5.74;80.90
51468;BME280;37545;45.302;-122.946;2023-02-17T05:57:17;101738.22;;;5.76;80.92
51468;BME280;37545;45.302;-122.946;2023-02-17T05:59:45;101746.69;;;5.75;80.89
51468;BME280;37545;45.302;-122.946;2023-02-17T06:02:15;101748.09;;;5.70;81.17
51468;BME280;37545;45.302;-122.946;2023-02-17T06:04:44;101756.78;;;5.72;81.72
51468;BME280;37545;45.302;-122.946;2023-02-17T06:07:14;101761.81;;;5.70;82.25
51468;BME280;37545;45.302;-122.946;2023-02-17T06:09:43;101761.31;;;5.62;83.20
51468;BME280;37545;45.302;-122.946;2023-02-17T06:12:12;101760.91;;;5.56;83.64
51468;BME280;37545;45.302;-122.946;2023-02-17T06:14:40;101764.66;;;5.48;83.74
51468;BME280;37545;45.302;-122.946;2023-02-17T06:17:09;101755.84;;;5.44;84.72
51468;BME280;37545;45.302;-122.946;2023-02-17T06:19:38;101745.59;;;5.44;84.83
51468;BME280;37545;45.302;-122.946;2023-02-17T06:22:06;101744.22;;;5.50;85.91
51468;BME280;37545;45.302;-122.946;2023-02-17T06:24:37;101751.34;;;5.54;85.67
51468;BME280;37545;45.302;-122.946;2023-02-17T06:27:06;101745.50;;;5.56;85.55
51468;BME280;37545;45.302;-122.946;2023-02-17T06:29:34;101747.38;;;5.59;84.70
51468;BME280;37545;45.302;-122.946;2023-02-17T06:32:03;101752.63;;;5.60;84.74
51468;BME280;37545;45.302;-122.946;2023-02-17T06:34:32;101759.56;;;5.61;85.02
51468;BME280;37545;45.302;-122.946;2023-02-17T06:37:01;101749.16;;;5.60;84.73
51468;BME280;37545;45.302;-122.946;2023-02-17T06:39:30;101747.69;;;5.63;84.95
51468;BME280;37545;45.302;-122.946;2023-02-17T06:42:00;101761.50;;;5.65;85.10
51468;BME280;37545;45.302;-122.946;2023-02-17T06:44:29;101754.03;;;5.69;84.60
51468;BME280;37545;45.302;-122.946;2023-02-17T06:46:58;101749.47;;;5.64;86.24
51468;BME280;37545;45.302;-122.946;2023-02-17T06:49:27;101754.13;;;5.57;87.72
51468;BME280;37545;45.302;-122.946;2023-02-17T06:51:55;101753.00;;;5.53;87.73
51468;BME280;37545;45.302;-122.946;2023-02-17T06:54:24;101756.56;;;5.55;87.84
51468;BME280;37545;45.302;-122.946;2023-02-17T06:56:53;101762.47;;;5.54;88.17
51468;BME280;37545;45.302;-122.946;2023-02-17T06:59:23;101769.22;;;5.52;88.50
51468;BME280;37545;45.302;-122.946;2023-02-17T07:01:52;101765.03;;;5.54;88.76
51468;BME280;37545;45.302;-122.946;2023-02-17T07:04:20;101770.41;;;5.57;87.94
51468;BME280;37545;45.302;-122.946;2023-02-17T07:06:50;101773.84;;;5.58;87.53
51468;BME280;37545;45.302;-122.946;2023-02-17T07:09:18;101780.97;;;5.62;87.81
51468;BME280;37545;45.302;-122.946;2023-02-17T07:11:47;101788.75;;;5.63;88.02
51468;BME280;37545;45.302;-122.946;2023-02-17T07:14:16;101783.84;;;5.66;87.54
51468;BME280;37545;45.302;-122.946;2023-02-17T07:16:47;101793.13;;;5.64;87.31
51468;BME280;37545;45.302;-122.946;2023-02-17T07:19:16;101781.44;;;5.56;88.04
51468;BME280;37545;45.302;-122.946;2023-02-17T07:21:45;101777.19;;;5.43;90.01
51468;BME280;37545;45.302;-122.946;2023-02-17T07:24:13;101788.34;;;5.44;90.65
51468;BME280;37545;45.302;-122.946;2023-02-17T07:26:42;101784.00;;;5.43;90.79
51468;BME280;37545;45.302;-122.946;2023-02-17T07:29:11;101792.03;;;5.48;90.84
51468;BME280;37545;45.302;-122.946;2023-02-17T07:31:39;101790.53;;;5.51;90.48
51468;BME280;37545;45.302;-122.946;2023-02-17T07:34:10;101791.78;;;5.44;91.27
51468;BME280;37545;45.302;-122.946;2023-02-17T07:36:38;101788.72;;;5.37;90.42
51468;BME280;37545;45.302;-122.946;2023-02-17T07:39:07;101782.78;;;5.38;90.71
51468;BME280;37545;45.302;-122.946;2023-02-17T07:41:36;101795.84;;;5.41;91.10
51468;BME280;37545;45.302;-122.946;2023-02-17T07:44:04;101792.78;;;5.46;90.77
51468;BME280;37545;45.302;-122.946;2023-02-17T07:46:33;101792.97;;;5.50;90.34
51468;BME280;37545;45.302;-122.946;2023-02-17T07:49:02;101805.16;;;5.52;89.70
51468;BME280;37545;45.302;-122.946;2023-02-17T07:51:33;101799.81;;;5.49;88.89
51468;BME280;37545;45.302;-122.946;2023-02-17T07:54:01;101795.66;;;5.51;89.04
51468;BME280;37545;45.302;-122.946;2023-02-17T07:56:30;101792.31;;;5.52;89.14
51468;BME280;37545;45.302;-122.946;2023-02-17T07:58:59;101795.53;;;5.50;89.19
51468;BME280;37545;45.302;-122.946;2023-02-17T08:01:34;101796.84;;;5.56;89.68
51468;BME280;37545;45.302;-122.946;2023-02-17T08:04:03;101800.22;;;5.55;89.11
51468;BME280;37545;45.302;-122.946;2023-02-17T08:06:36;101794.97;;;5.54;88.84
51468;BME280;37545;45.302;-122.946;2023-02-17T08:09:05;101799.81;;;5.49;88.58
51468;BME280;37545;45.302;-122.946;2023-02-17T08:11:50;101802.28;;;5.48;89.54
51468;BME280;37545;45.302;-122.946;2023-02-17T08:14:44;101804.75;;;5.46;89.40
51468;BME280;37545;45.302;-122.946;2023-02-17T08:17:13;101809.50;;;5.53;89.45
51468;BME280;37545;45.302;-122.946;2023-02-17T08:19:42;101803.56;;;5.54;88.55
51468;BME280;37545;45.302;-122.946;2023-02-17T08:22:12;101802.66;;;5.54;89.00
51468;BME280;37545;45.302;-122.946;2023-02-17T08:24:40;101802.78;;;5.55;88.92
51468;BME280;37545;45.302;-122.946;2023-02-17T08:27:09;101810.28;;;5.52;89.20
51468;BME280;37545;45.302;-122.946;2023-02-17T08:29:38;101805.94;;;5.51;89.43
51468;BME280;37545;45.302;-122.946;2023-02-17T08:32:07;101813.81;;;5.54;89.39
51468;BME280;37545;45.302;-122.946;2023-02-17T08:34:35;101815.88;;;5.46;89.89
51468;BME280;37545;45.302;-122.946;2023-02-17T08:37:05;101819.72;;;5.40;90.92
51468;BME280;37545;45.302;-122.946;2023-02-17T08:39:36;101816.16;;;5.38;90.94
51468;BME280;37545;45.302;-122.946;2023-02-17T08:42:05;101832.47;;;5.38;91.32
51468;BME280;37545;45.302;-122.946;2023-02-17T08:44:34;101822.84;;;5.36;91.45
51468;BME280;37545;45.302;-122.946;2023-02-17T08:47:04;101814.59;;;5.40;92.25
51468;BME280;37545;45.302;-122.946;2023-02-17T08:49:33;101824.16;;;5.42;92.09
51468;BME280;37545;45.302;-122.946;2023-02-17T08:52:02;101818.03;;;5.40;93.89
51468;BME280;37545;45.302;-122.946;2023-02-17T08:54:33;101812.03;;;5.40;94.95
51468;BME280;37545;45.302;-122.946;2023-02-17T08:57:10;101809.25;;;5.37;94.63
51468;BME280;37545;45.302;-122.946;2023-02-17T08:59:39;101813.72;;;5.39;94.38
51468;BME280;37545;45.302;-122.946;2023-02-17T09:02:09;101806.88;;;5.40;94.59
51468;BME280;37545;45.302;-122.946;2023-02-17T09:04:37;101806.13;;;5.41;93.61
51468;BME280;37545;45.302;-122.946;2023-02-17T09:07:09;101812.25;;;5.43;93.32
51468;BME280;37545;45.302;-122.946;2023-02-17T09:09:38;101814.81;;;5.43;93.86
51468;BME280;37545;45.302;-122.946;2023-02-17T09:12:07;101808.75;;;5.42;93.63
51468;BME280;37545;45.302;-122.946;2023-02-17T09:14:37;101800.19;;;5.42;93.02
51468;BME280;37545;45.302;-122.946;2023-02-17T09:17:06;101807.50;;;5.49;92.61
51468;BME280;37545;45.302;-122.946;2023-02-17T09:19:37;101810.28;;;5.52;91.96
51468;BME280;37545;45.302;-122.946;2023-02-17T09:22:06;101810.28;;;5.52;92.01
51468;BME280;37545;45.302;-122.946;2023-02-17T09:24:35;101809.38;;;5.52;91.26
51468;BME280;37545;45.302;-122.946;2023-02-17T09:27:05;101816.31;;;5.53;91.06
51468;BME280;37545;45.302;-122.946;2023-02-17T09:29:37;101818.06;;;5.54;91.35
51468;BME280;37545;45.302;-122.946;2023-02-17T09:32:07;101825.91;;;5.55;91.59
51468;BME280;37545;45.302;-122.946;2023-02-17T09:34:36;101828.34;;;5.54;91.16
51468;BME280;37545;45.302;-122.946;2023-02-17T09:37:09;101826.59;;;5.53;91.25
51468;BME280;37545;45.302;-122.946;2023-02-17T09:39:39;101821.91;;;5.47;92.70
51468;BME280;37545;45.302;-122.946;2023-02-17T09:42:11;101825.53;;;5.37;92.58
51468;BME280;37545;45.302;-122.946;2023-02-17T09:44:48;101822.22;;;5.27;93.51
51468;BME280;37545;45.302;-122.946;2023-02-17T09:47:22;101819.66;;;5.13;93.88
51468;BME280;37545;45.302;-122.946;2023-02-17T09:49:54;101828.97;;;5.24;93.96
51468;BME280;37545;45.302;-122.946;2023-02-17T09:52:27;101833.41;;;5.27;93.56
51468;BME280;37545;45.302;-122.946;2023-02-17T09:55:03;101830.16;;;5.30;93.87
51468;BME280;37545;45.302;-122.946;2023-02-17T09:57:35;101813.91;;;5.17;94.84
51468;BME280;37545;45.302;-122.946;2023-02-17T10:00:11;101823.59;;;5.21;94.51
51468;BME280;37545;45.302;-122.946;2023-02-17T10:02:44;101829.44;;;5.19;94.34
51468;BME280;37545;45.302;-122.946;2023-02-17T10:05:18;101829.91;;;5.13;93.84
51468;BME280;37545;45.302;-122.946;2023-02-17T10:07:54;101842.69;;;5.25;94.69
51468;BME280;37545;45.302;-122.946;2023-02-17T10:10:28;101836.56;;;5.23;94.45
51468;BME280;37545;45.302;-122.946;2023-02-17T10:13:01;101848.31;;;5.33;94.13
51468;BME280;37545;45.302;-122.946;2023-02-17T10:15:37;101856.13;;;5.34;93.50
51468;BME280;37545;45.302;-122.946;2023-02-17T10:18:12;101858.78;;;5.36;94.19
51468;BME280;37545;45.302;-122.946;2023-02-17T10:20:48;101854.66;;;5.38;93.87
51468;BME280;37545;45.302;-122.946;2023-02-17T10:23:19;101853.88;;;5.39;93.87
51468;BME280;37545;45.302;-122.946;2023-02-17T10:26:00;101855.56;;;5.38;92.89
51468;BME280;37545;45.302;-122.946;2023-02-17T10:28:43;101850.53;;;5.40;92.59
51468;BME280;37545;45.302;-122.946;2023-02-17T10:31:27;101855.66;;;5.40;92.82
51468;BME280;37545;45.302;-122.946;2023-02-17T10:34:02;101860.78;;;5.40;93.33
51468;BME280;37545;45.302;-122.946;2023-02-17T10:36:38;101854.56;;;5.36;93.27
51468;BME280;37545;45.302;-122.946;2023-02-17T10:39:14;101844.13;;;5.21;94.64
51468;BME280;37545;45.302;-122.946;2023-02-17T10:41:51;101853.09;;;5.15;95.02
51468;BME280;37545;45.302;-122.946;2023-02-17T10:44:22;101854.75;;;5.14;95.24
51468;BME280;37545;45.302;-122.946;2023-02-17T10:46:54;101865.22;;;5.17;95.64
51468;BME280;37545;45.302;-122.946;2023-02-17T10:49:28;101866.22;;;5.19;95.72
51468;BME280;37545;45.302;-122.946;2023-02-17T10:52:00;101870.03;;;5.24;95.15
51468;BME280;37545;45.302;-122.946;2023-02-17T10:54:33;101869.34;;;5.27;94.58
51468;BME280;37545;45.302;-122.946;2023-02-17T10:57:07;101888.31;;;5.29;94.13
51468;BME280;37545;45.302;-122.946;2023-02-17T10:59:42;101882.25;;;5.29;93.82
51468;BME280;37545;45.302;-122.946;2023-02-17T11:02:24;101884.75;;;5.27;93.94
51468;BME280;37545;45.302;-122.946;2023-02-17T11:04:55;101882.94;;;5.26;94.07
51468;BME280;37545;45.302;-122.946;2023-02-17T11:07:31;101872.94;;;5.17;93.24
51468;BME280;37545;45.302;-122.946;2023-02-17T11:10:02;101865.22;;;5.17;93.96
51468;BME280;37545;45.302;-122.946;2023-02-17T11:12:37;101859.38;;;5.07;96.48
51468;BME280;37545;45.302;-122.946;2023-02-17T11:15:15;101859.63;;;4.98;98.21
51468;BME280;37545;45.302;-122.946;2023-02-17T11:17:46;101858.81;;;4.99;98.01
51468;BME280;37545;45.302;-122.946;2023-02-17T11:20:31;101862.31;;;4.99;97.26
51468;BME280;37545;45.302;-122.946;2023-02-17T11:23:05;101868.31;;;5.00;97.60
51468;BME280;37545;45.302;-122.946;2023-02-17T11:25:36;101864.19;;;5.02;97.37
51468;BME280;37545;45.302;-122.946;2023-02-17T11:28:09;101862.50;;;5.02;97.73
51468;BME280;37545;45.302;-122.946;2023-02-17T11:30:39;101861.03;;;5.06;96.89
51468;BME280;37545;45.302;-122.946;2023-02-17T11:33:14;101853.34;;;5.06;96.09
51468;BME280;37545;45.302;-122.946;2023-02-17T11:35:48;101849.00;;;5.05;95.91
51468;BME280;37545;45.302;-122.946;2023-02-17T11:38:20;101852.38;;;5.04;96.46
51468;BME280;37545;45.302;-122.946;2023-02-17T11:40:53;101852.56;;;5.07;96.38
51468;BME280;37545;45.302;-122.946;2023-02-17T11:43:23;101849.88;;;5.06;96.28
51468;BME280;37545;45.302;-122.946;2023-02-17T11:45:59;101846.56;;;5.07;96.18
51468;BME280;37545;45.302;-122.946;2023-02-17T11:48:56;101854.69;;;5.01;96.53
51468;BME280;37545;45.302;-122.946;2023-02-17T11:51:41;101851.13;;;4.99;97.12
51468;BME280;37545;45.302;-122.946;2023-02-17T11:54:22;101855.25;;;4.97;96.53
51468;BME280;37545;45.302;-122.946;2023-02-17T11:57:01;101848.03;;;4.91;96.94
51468;BME280;37545;45.302;-122.946;2023-02-17T11:59:43;101849.28;;;4.85;97.48
51468;BME280;37545;45.302;-122.946;2023-02-17T12:02:27;101841.38;;;4.81;98.61
51468;BME280;37545;45.302;-122.946;2023-02-17T12:05:14;101846.72;;;4.85;99.26
51468;BME280;37545;45.302;-122.946;2023-02-17T12:07:54;101843.59;;;4.89;98.85
51468;BME280;37545;45.302;-122.946;2023-02-17T12:10:38;101832.66;;;4.91;98.26
51468;BME280;37545;45.302;-122.946;2023-02-17T12:13:25;101833.53;;;4.92;97.49
51468;BME280;37545;45.302;-122.946;2023-02-17T12:16:17;101842.34;;;4.95;97.28
51468;BME280;37545;45.302;-122.946;2023-02-17T12:18:55;101834.84;;;4.98;97.06
51468;BME280;37545;45.302;-122.946;2023-02-17T12:21:37;101841.00;;;5.00;96.81
51468;BME280;37545;45.302;-122.946;2023-02-17T12:24:18;101833.28;;;5.00;96.15
51468;BME280;37545;45.302;-122.946;2023-02-17T12:26:52;101828.84;;;4.98;95.82
51468;BME280;37545;45.302;-122.946;2023-02-17T12:29:34;101839.22;;;4.99;95.64
51468;BME280;37545;45.302;-122.946;2023-02-17T12:32:32;101833.97;;;4.98;96.22
51468;BME280;37545;45.302;-122.946;2023-02-17T12:35:13;101842.56;;;4.98;95.94
51468;BME280;37545;45.302;-122.946;2023-02-17T12:37:49;101834.66;;;4.95;96.17
51468;BME280;37545;45.302;-122.946;2023-02-17T12:40:31;101840.78;;;4.97;96.26
51468;BME280;37545;45.302;-122.946;2023-02-17T12:43:05;101842.44;;;4.97;96.17
51468;BME280;37545;45.302;-122.946;2023-02-17T12:45:38;101850.25;;;4.98;96.57
51468;BME280;37545;45.302;-122.946;2023-02-17T12:48:14;101852.94;;;5.00;95.96
51468;BME280;37545;45.302;-122.946;2023-02-17T12:50:51;101857.81;;;4.97;96.14
51468;BME280;37545;45.302;-122.946;2023-02-17T12:53:36;101857.19;;;4.99;96.26
51468;BME280;37545;45.302;-122.946;2023-02-17T12:56:38;101850.13;;;4.97;96.22
51468;BME280;37545;45.302;-122.946;2023-02-17T12:59:15;101852.38;;;4.92;96.57